KFLO

Florence Regional Airport

Florence, South Carolina, USA
KFLO 252320Z 2600/2624 28009KT P6SM BKN040 BKN100 FM260300 VRB04KT P6SM BKN060 FM261500 12007KT P6SM BKN050
Issued Valid From Valid To
Apr-25 @ 23:20 UTC
(4 hours ago)
Apr-26 @ 00:00 UTC
(4 hours ago)
Apr-27 @ 00:00 UTC
(in 20 hours)
Expired Click to View Apr-26 @ 00:00 to Apr-26 @ 03:00
KFLO 252320Z 2600/2624 28009KT P6SM BKN040 BKN100
Wind Visibility Clouds
280° at 9 knots Greater than 6 miles
  • Broken at 4,000' AGL
  • Broken at 10,000' AGL
From Apr-26 @ 03:00 to Apr-26 @ 15:00
FM260300 VRB04KT P6SM BKN060
Wind Visibility Clouds
Variable at 4 knots Greater than 6 miles
  • Broken at 6,000' AGL
From Apr-26 @ 15:00 to Apr-27 @ 00:00
FM261500 12007KT P6SM BKN050
Wind Visibility Clouds
120° at 7 knots Greater than 6 miles
  • Broken at 5,000' AGL
KFLO 252320Z 2600/2624 28009KT P6SM BKN040 BKN100 FM260300 VRB04KT P6SM BKN060 FM261500 12007KT P6SM BKN050
Issued Apr-25 @ 23:20 UTC
(4 hours ago)
Valid From Apr-26 @ 00:00 UTC
(4 hours ago)
Valid To Apr-27 @ 00:00 UTC
(in 20 hours)
Apr-26 @ 00:00 - Apr-26 @ 03:00
Wind Visibility
280° at 9 knots Greater than 6 miles
Clouds
  • Broken at 4,000' AGL
  • Broken at 10,000' AGL
From Apr-26 @ 03:00 - Apr-26 @ 15:00
Wind Visibility
Variable at 4 knots Greater than 6 miles
Clouds
  • Broken at 6,000' AGL
From Apr-26 @ 15:00 - Apr-27 @ 00:00
Wind Visibility
120° at 7 knots Greater than 6 miles
Clouds
  • Broken at 5,000' AGL